sensor_id;sensor_type;location;lat;lon;timestamp;P1;durP1;ratioP1;P2;durP2;ratioP2
70122;SDS011;57489;37.404;24.920;2022-11-02T00:04:40;6.33;;;2.77;;
70122;SDS011;57489;37.404;24.920;2022-11-02T00:09:40;6.13;;;3.07;;
70122;SDS011;57489;37.404;24.920;2022-11-02T00:14:40;5.63;;;2.90;;
70122;SDS011;57489;37.404;24.920;2022-11-02T00:19:41;9.68;;;3.15;;
70122;SDS011;57489;37.404;24.920;2022-11-02T00:24:41;6.57;;;2.97;;
70122;SDS011;57489;37.404;24.920;2022-11-02T00:29:42;4.77;;;2.33;;
70122;SDS011;57489;37.404;24.920;2022-11-02T00:34:42;6.60;;;2.70;;
70122;SDS011;57489;37.404;24.920;2022-11-02T00:39:43;8.60;;;3.40;;
70122;SDS011;57489;37.404;24.920;2022-11-02T00:44:43;6.07;;;2.60;;
70122;SDS011;57489;37.404;24.920;2022-11-02T00:49:44;5.47;;;2.60;;
70122;SDS011;57489;37.404;24.920;2022-11-02T00:54:44;6.77;;;2.93;;
70122;SDS011;57489;37.404;24.920;2022-11-02T00:59:45;6.63;;;2.97;;
70122;SDS011;57489;37.404;24.920;2022-11-02T01:04:45;5.57;;;2.80;;
70122;SDS011;57489;37.404;24.920;2022-11-02T01:09:45;5.87;;;2.93;;
70122;SDS011;57489;37.404;24.920;2022-11-02T01:14:47;7.13;;;2.70;;
70122;SDS011;57489;37.404;24.920;2022-11-02T01:19:51;6.10;;;2.80;;
70122;SDS011;57489;37.404;24.920;2022-11-02T01:24:51;6.38;;;2.50;;
70122;SDS011;57489;37.404;24.920;2022-11-02T01:29:52;7.37;;;2.63;;
70122;SDS011;57489;37.404;24.920;2022-11-02T01:34:52;5.10;;;2.47;;
70122;SDS011;57489;37.404;24.920;2022-11-02T01:39:52;6.43;;;3.50;;
70122;SDS011;57489;37.404;24.920;2022-11-02T01:44:53;7.23;;;3.37;;
70122;SDS011;57489;37.404;24.920;2022-11-02T01:49:59;5.70;;;3.27;;
70122;SDS011;57489;37.404;24.920;2022-11-02T01:55:24;7.05;;;3.10;;
70122;SDS011;57489;37.404;24.920;2022-11-02T02:00:29;6.07;;;3.00;;
70122;SDS011;57489;37.404;24.920;2022-11-02T02:05:29;9.97;;;2.90;;
70122;SDS011;57489;37.404;24.920;2022-11-02T02:10:33;9.27;;;2.67;;
70122;SDS011;57489;37.404;24.920;2022-11-02T02:15:38;6.07;;;2.92;;
70122;SDS011;57489;37.404;24.920;2022-11-02T02:20:53;8.70;;;2.90;;
70122;SDS011;57489;37.404;24.920;2022-11-02T02:31:59;5.37;;;2.63;;
70122;SDS011;57489;37.404;24.920;2022-11-02T02:37:13;5.88;;;2.95;;
70122;SDS011;57489;37.404;24.920;2022-11-02T02:42:22;5.32;;;2.58;;
70122;SDS011;57489;37.404;24.920;2022-11-02T02:47:53;5.90;;;2.40;;
70122;SDS011;57489;37.404;24.920;2022-11-02T02:53:01;5.45;;;2.38;;
70122;SDS011;57489;37.404;24.920;2022-11-02T02:58:06;6.18;;;2.58;;
70122;SDS011;57489;37.404;24.920;2022-11-02T03:03:18;5.60;;;2.73;;
70122;SDS011;57489;37.404;24.920;2022-11-02T03:08:21;6.43;;;2.38;;
70122;SDS011;57489;37.404;24.920;2022-11-02T03:13:38;7.97;;;2.77;;
70122;SDS011;57489;37.404;24.920;2022-11-02T03:18:46;5.82;;;3.05;;
70122;SDS011;57489;37.404;24.920;2022-11-02T03:23:59;5.07;;;2.83;;
70122;SDS011;57489;37.404;24.920;2022-11-02T03:29:07;6.63;;;2.80;;
70122;SDS011;57489;37.404;24.920;2022-11-02T03:39:40;5.47;;;2.60;;
70122;SDS011;57489;37.404;24.920;2022-11-02T03:44:44;5.33;;;2.40;;
70122;SDS011;57489;37.404;24.920;2022-11-02T03:49:46;5.30;;;2.63;;
70122;SDS011;57489;37.404;24.920;2022-11-02T04:00:13;5.60;;;2.60;;
70122;SDS011;57489;37.404;24.920;2022-11-02T04:05:15;6.53;;;2.70;;
70122;SDS011;57489;37.404;24.920;2022-11-02T04:10:16;6.28;;;2.42;;
70122;SDS011;57489;37.404;24.920;2022-11-02T04:15:17;4.83;;;2.47;;
70122;SDS011;57489;37.404;24.920;2022-11-02T04:20:17;5.87;;;2.60;;
70122;SDS011;57489;37.404;24.920;2022-11-02T04:25:18;6.03;;;2.00;;
70122;SDS011;57489;37.404;24.920;2022-11-02T04:30:20;6.43;;;2.20;;
70122;SDS011;57489;37.404;24.920;2022-11-02T04:35:21;4.40;;;2.07;;
70122;SDS011;57489;37.404;24.920;2022-11-02T04:40:22;6.55;;;2.30;;
70122;SDS011;57489;37.404;24.920;2022-11-02T04:45:23;5.40;;;2.50;;
70122;SDS011;57489;37.404;24.920;2022-11-02T04:50:23;5.77;;;2.70;;
70122;SDS011;57489;37.404;24.920;2022-11-02T04:55:24;8.87;;;3.10;;
70122;SDS011;57489;37.404;24.920;2022-11-02T05:00:24;5.53;;;2.60;;
70122;SDS011;57489;37.404;24.920;2022-11-02T05:05:25;5.57;;;2.47;;
70122;SDS011;57489;37.404;24.920;2022-11-02T05:10:25;8.30;;;2.80;;
70122;SDS011;57489;37.404;24.920;2022-11-02T05:15:26;7.40;;;2.63;;
70122;SDS011;57489;37.404;24.920;2022-11-02T05:20:26;6.70;;;2.60;;
70122;SDS011;57489;37.404;24.920;2022-11-02T05:25:27;6.57;;;2.67;;
70122;SDS011;57489;37.404;24.920;2022-11-02T05:30:27;4.80;;;2.63;;
70122;SDS011;57489;37.404;24.920;2022-11-02T05:35:28;10.63;;;4.03;;
70122;SDS011;57489;37.404;24.920;2022-11-02T05:40:28;18.33;;;6.57;;
70122;SDS011;57489;37.404;24.920;2022-11-02T05:45:30;23.20;;;5.17;;
70122;SDS011;57489;37.404;24.920;2022-11-02T05:50:31;21.00;;;6.07;;
70122;SDS011;57489;37.404;24.920;2022-11-02T05:55:32;25.73;;;7.33;;
70122;SDS011;57489;37.404;24.920;2022-11-02T06:00:33;28.50;;;6.93;;
70122;SDS011;57489;37.404;24.920;2022-11-02T06:05:33;23.20;;;5.83;;
70122;SDS011;57489;37.404;24.920;2022-11-02T06:10:34;25.00;;;6.53;;
70122;SDS011;57489;37.404;24.920;2022-11-02T06:15:34;19.20;;;5.77;;
70122;SDS011;57489;37.404;24.920;2022-11-02T06:20:35;30.03;;;8.00;;
70122;SDS011;57489;37.404;24.920;2022-11-02T06:25:35;35.27;;;10.17;;
70122;SDS011;57489;37.404;24.920;2022-11-02T06:30:36;26.43;;;8.67;;
70122;SDS011;57489;37.404;24.920;2022-11-02T06:35:36;24.57;;;7.17;;
70122;SDS011;57489;37.404;24.920;2022-11-02T06:40:37;24.10;;;6.65;;
70122;SDS011;57489;37.404;24.920;2022-11-02T06:45:38;18.73;;;6.50;;
70122;SDS011;57489;37.404;24.920;2022-11-02T06:50:39;25.40;;;7.47;;
70122;SDS011;57489;37.404;24.920;2022-11-02T06:55:39;13.13;;;5.28;;
70122;SDS011;57489;37.404;24.920;2022-11-02T07:00:39;19.03;;;5.67;;
70122;SDS011;57489;37.404;24.920;2022-11-02T07:05:40;14.83;;;4.73;;
70122;SDS011;57489;37.404;24.920;2022-11-02T07:10:40;13.57;;;4.67;;
70122;SDS011;57489;37.404;24.920;2022-11-02T07:15:41;20.03;;;5.27;;
70122;SDS011;57489;37.404;24.920;2022-11-02T07:20:41;13.17;;;4.80;;
70122;SDS011;57489;37.404;24.920;2022-11-02T07:25:42;18.13;;;5.43;;
70122;SDS011;57489;37.404;24.920;2022-11-02T07:30:42;10.93;;;4.32;;
70122;SDS011;57489;37.404;24.920;2022-11-02T07:35:43;9.83;;;4.03;;
70122;SDS011;57489;37.404;24.920;2022-11-02T07:40:46;12.03;;;4.20;;
70122;SDS011;57489;37.404;24.920;2022-11-02T07:45:48;12.07;;;4.37;;
70122;SDS011;57489;37.404;24.920;2022-11-02T07:50:48;12.80;;;3.97;;
70122;SDS011;57489;37.404;24.920;2022-11-02T07:55:49;13.23;;;4.03;;
70122;SDS011;57489;37.404;24.920;2022-11-02T08:00:49;10.80;;;4.13;;
70122;SDS011;57489;37.404;24.920;2022-11-02T08:05:50;11.80;;;3.13;;
70122;SDS011;57489;37.404;24.920;2022-11-02T08:10:50;12.13;;;3.87;;
70122;SDS011;57489;37.404;24.920;2022-11-02T08:15:52;10.77;;;3.70;;
70122;SDS011;57489;37.404;24.920;2022-11-02T08:20:53;8.93;;;3.73;;
70122;SDS011;57489;37.404;24.920;2022-11-02T08:25:57;8.15;;;3.38;;
70122;SDS011;57489;37.404;24.920;2022-11-02T08:30:58;10.07;;;4.30;;
70122;SDS011;57489;37.404;24.920;2022-11-02T08:36:02;11.10;;;3.23;;
70122;SDS011;57489;37.404;24.920;2022-11-02T08:41:03;7.90;;;3.67;;
70122;SDS011;57489;37.404;24.920;2022-11-02T08:46:04;7.10;;;2.90;;
70122;SDS011;57489;37.404;24.920;2022-11-02T08:51:04;7.93;;;3.20;;
70122;SDS011;57489;37.404;24.920;2022-11-02T08:56:05;8.85;;;3.47;;
70122;SDS011;57489;37.404;24.920;2022-11-02T09:01:06;9.17;;;3.43;;
70122;SDS011;57489;37.404;24.920;2022-11-02T09:06:06;6.77;;;3.23;;
70122;SDS011;57489;37.404;24.920;2022-11-02T09:11:07;8.47;;;2.80;;
70122;SDS011;57489;37.404;24.920;2022-11-02T09:16:07;8.03;;;3.17;;
70122;SDS011;57489;37.404;24.920;2022-11-02T09:21:08;8.95;;;3.05;;
70122;SDS011;57489;37.404;24.920;2022-11-02T09:26:08;7.30;;;2.90;;
70122;SDS011;57489;37.404;24.920;2022-11-02T09:31:08;6.20;;;2.50;;
70122;SDS011;57489;37.404;24.920;2022-11-02T09:36:09;8.13;;;3.23;;
70122;SDS011;57489;37.404;24.920;2022-11-02T09:46:26;5.90;;;2.35;;
70122;SDS011;57489;37.404;24.920;2022-11-02T09:51:32;7.47;;;2.70;;
70122;SDS011;57489;37.404;24.920;2022-11-02T09:56:42;6.60;;;2.70;;
70122;SDS011;57489;37.404;24.920;2022-11-02T10:18:07;6.60;;;3.28;;
70122;SDS011;57489;37.404;24.920;2022-11-02T10:23:26;5.60;;;2.70;;
70122;SDS011;57489;37.404;24.920;2022-11-02T10:28:32;6.90;;;2.93;;
70122;SDS011;57489;37.404;24.920;2022-11-02T10:33:35;8.57;;;3.20;;
70122;SDS011;57489;37.404;24.920;2022-11-02T10:54:54;7.88;;;3.47;;
70122;SDS011;57489;37.404;24.920;2022-11-02T11:05:24;7.03;;;3.20;;
70122;SDS011;57489;37.404;24.920;2022-11-02T11:10:24;8.38;;;3.25;;
70122;SDS011;57489;37.404;24.920;2022-11-02T11:15:26;6.63;;;2.70;;
70122;SDS011;57489;37.404;24.920;2022-11-02T11:20:31;7.77;;;3.53;;
70122;SDS011;57489;37.404;24.920;2022-11-02T11:25:37;6.83;;;3.03;;
70122;SDS011;57489;37.404;24.920;2022-11-02T11:30:39;6.80;;;3.42;;
70122;SDS011;57489;37.404;24.920;2022-11-02T11:35:40;6.13;;;3.33;;
70122;SDS011;57489;37.404;24.920;2022-11-02T11:40:49;6.78;;;3.05;;
70122;SDS011;57489;37.404;24.920;2022-11-02T11:45:57;6.15;;;3.15;;
70122;SDS011;57489;37.404;24.920;2022-11-02T11:51:00;6.30;;;2.97;;
70122;SDS011;57489;37.404;24.920;2022-11-02T11:56:02;7.22;;;2.95;;
70122;SDS011;57489;37.404;24.920;2022-11-02T12:01:14;6.80;;;2.83;;
70122;SDS011;57489;37.404;24.920;2022-11-02T12:06:21;5.70;;;2.97;;
70122;SDS011;57489;37.404;24.920;2022-11-02T12:17:14;6.13;;;2.90;;
70122;SDS011;57489;37.404;24.920;2022-11-02T12:22:30;9.45;;;2.88;;
70122;SDS011;57489;37.404;24.920;2022-11-02T12:27:43;15.63;;;3.25;;
70122;SDS011;57489;37.404;24.920;2022-11-02T12:43:53;13.93;;;3.72;;
70122;SDS011;57489;37.404;24.920;2022-11-02T12:49:23;12.93;;;3.58;;
70122;SDS011;57489;37.404;24.920;2022-11-02T12:54:45;13.47;;;3.90;;
70122;SDS011;57489;37.404;24.920;2022-11-02T12:59:50;9.27;;;3.40;;
70122;SDS011;57489;37.404;24.920;2022-11-02T13:10:11;12.50;;;3.20;;
70122;SDS011;57489;37.404;24.920;2022-11-02T13:15:15;11.15;;;3.28;;
70122;SDS011;57489;37.404;24.920;2022-11-02T13:25:25;16.30;;;3.67;;
70122;SDS011;57489;37.404;24.920;2022-11-02T13:30:30;14.63;;;3.63;;
70122;SDS011;57489;37.404;24.920;2022-11-02T13:35:36;15.45;;;3.70;;
70122;SDS011;57489;37.404;24.920;2022-11-02T13:50:48;11.20;;;3.40;;
70122;SDS011;57489;37.404;24.920;2022-11-02T13:55:52;14.05;;;3.63;;
70122;SDS011;57489;37.404;24.920;2022-11-02T14:01:03;10.57;;;3.25;;
70122;SDS011;57489;37.404;24.920;2022-11-02T14:06:09;8.33;;;3.30;;
70122;SDS011;57489;37.404;24.920;2022-11-02T14:16:11;13.77;;;3.77;;
70122;SDS011;57489;37.404;24.920;2022-11-02T14:26:54;10.18;;;3.28;;
70122;SDS011;57489;37.404;24.920;2022-11-02T14:31:56;14.27;;;3.85;;
70122;SDS011;57489;37.404;24.920;2022-11-02T14:37:07;12.63;;;3.50;;
70122;SDS011;57489;37.404;24.920;2022-11-02T14:47:31;9.40;;;2.92;;
70122;SDS011;57489;37.404;24.920;2022-11-02T14:52:36;8.17;;;2.97;;
70122;SDS011;57489;37.404;24.920;2022-11-02T14:57:38;11.48;;;3.20;;
70122;SDS011;57489;37.404;24.920;2022-11-02T15:02:42;9.95;;;3.08;;
70122;SDS011;57489;37.404;24.920;2022-11-02T15:07:47;10.10;;;3.70;;
70122;SDS011;57489;37.404;24.920;2022-11-02T15:12:55;7.87;;;2.70;;
70122;SDS011;57489;37.404;24.920;2022-11-02T15:23:26;9.50;;;3.13;;
70122;SDS011;57489;37.404;24.920;2022-11-02T15:28:28;10.40;;;3.10;;
70122;SDS011;57489;37.404;24.920;2022-11-02T15:33:34;10.95;;;3.15;;
70122;SDS011;57489;37.404;24.920;2022-11-02T15:38:44;9.07;;;3.30;;
70122;SDS011;57489;37.404;24.920;2022-11-02T16:05:14;14.87;;;3.30;;
70122;SDS011;57489;37.404;24.920;2022-11-02T16:15:25;11.20;;;4.03;;
70122;SDS011;57489;37.404;24.920;2022-11-02T16:20:28;11.53;;;3.53;;
70122;SDS011;57489;37.404;24.920;2022-11-02T16:25:34;12.20;;;4.00;;
70122;SDS011;57489;37.404;24.920;2022-11-02T16:30:36;8.40;;;3.28;;
70122;SDS011;57489;37.404;24.920;2022-11-02T16:35:37;13.53;;;3.83;;
70122;SDS011;57489;37.404;24.920;2022-11-02T16:40:38;12.80;;;3.97;;
70122;SDS011;57489;37.404;24.920;2022-11-02T16:45:39;7.80;;;3.90;;
70122;SDS011;57489;37.404;24.920;2022-11-02T16:50:58;14.27;;;3.97;;
70122;SDS011;57489;37.404;24.920;2022-11-02T17:01:25;12.32;;;4.00;;
70122;SDS011;57489;37.404;24.920;2022-11-02T17:06:28;11.03;;;3.80;;
70122;SDS011;57489;37.404;24.920;2022-11-02T17:11:28;14.80;;;3.97;;
70122;SDS011;57489;37.404;24.920;2022-11-02T17:16:31;10.38;;;3.72;;
70122;SDS011;57489;37.404;24.920;2022-11-02T17:21:32;12.55;;;3.50;;
70122;SDS011;57489;37.404;24.920;2022-11-02T17:26:33;16.07;;;3.83;;
70122;SDS011;57489;37.404;24.920;2022-11-02T17:31:36;16.65;;;4.10;;
70122;SDS011;57489;37.404;24.920;2022-11-02T17:36:41;9.93;;;3.60;;
70122;SDS011;57489;37.404;24.920;2022-11-02T17:41:42;11.40;;;3.83;;
70122;SDS011;57489;37.404;24.920;2022-11-02T17:46:44;13.75;;;3.58;;
70122;SDS011;57489;37.404;24.920;2022-11-02T17:51:45;10.23;;;4.10;;
70122;SDS011;57489;37.404;24.920;2022-11-02T17:56:46;10.17;;;3.57;;
70122;SDS011;57489;37.404;24.920;2022-11-02T18:01:47;10.70;;;3.80;;
70122;SDS011;57489;37.404;24.920;2022-11-02T18:06:47;9.57;;;3.13;;
70122;SDS011;57489;37.404;24.920;2022-11-02T18:11:48;11.00;;;3.90;;
70122;SDS011;57489;37.404;24.920;2022-11-02T18:16:48;12.47;;;3.00;;
70122;SDS011;57489;37.404;24.920;2022-11-02T18:21:49;10.83;;;3.80;;
70122;SDS011;57489;37.404;24.920;2022-11-02T18:26:49;14.10;;;3.43;;
70122;SDS011;57489;37.404;24.920;2022-11-02T18:31:49;11.53;;;3.40;;
70122;SDS011;57489;37.404;24.920;2022-11-02T18:36:50;8.90;;;3.10;;
70122;SDS011;57489;37.404;24.920;2022-11-02T18:41:50;12.67;;;3.90;;
70122;SDS011;57489;37.404;24.920;2022-11-02T18:46:51;14.40;;;3.47;;
70122;SDS011;57489;37.404;24.920;2022-11-02T18:51:51;10.77;;;3.23;;
70122;SDS011;57489;37.404;24.920;2022-11-02T18:56:52;10.67;;;4.03;;
70122;SDS011;57489;37.404;24.920;2022-11-02T19:01:52;11.47;;;3.30;;
70122;SDS011;57489;37.404;24.920;2022-11-02T19:06:53;13.53;;;3.60;;
70122;SDS011;57489;37.404;24.920;2022-11-02T19:16:59;10.23;;;3.97;;
70122;SDS011;57489;37.404;24.920;2022-11-02T19:22:00;8.73;;;3.47;;
70122;SDS011;57489;37.404;24.920;2022-11-02T19:27:02;14.93;;;3.47;;
70122;SDS011;57489;37.404;24.920;2022-11-02T19:32:02;9.47;;;2.83;;
70122;SDS011;57489;37.404;24.920;2022-11-02T19:37:04;11.63;;;3.60;;
70122;SDS011;57489;37.404;24.920;2022-11-02T19:42:05;10.07;;;3.37;;
70122;SDS011;57489;37.404;24.920;2022-11-02T19:47:05;8.02;;;3.35;;
70122;SDS011;57489;37.404;24.920;2022-11-02T19:52:06;7.50;;;2.77;;
70122;SDS011;57489;37.404;24.920;2022-11-02T19:57:06;14.00;;;2.87;;
70122;SDS011;57489;37.404;24.920;2022-11-02T20:02:08;8.53;;;3.53;;
70122;SDS011;57489;37.404;24.920;2022-11-02T20:07:09;12.20;;;3.60;;
70122;SDS011;57489;37.404;24.920;2022-11-02T20:12:10;7.90;;;3.33;;
70122;SDS011;57489;37.404;24.920;2022-11-02T20:17:10;6.97;;;3.10;;
70122;SDS011;57489;37.404;24.920;2022-11-02T20:22:11;8.10;;;2.93;;
70122;SDS011;57489;37.404;24.920;2022-11-02T20:27:11;8.83;;;2.73;;
70122;SDS011;57489;37.404;24.920;2022-11-02T20:32:12;11.80;;;3.10;;
70122;SDS011;57489;37.404;24.920;2022-11-02T20:37:12;11.60;;;3.60;;
70122;SDS011;57489;37.404;24.920;2022-11-02T20:42:13;9.27;;;3.37;;
70122;SDS011;57489;37.404;24.920;2022-11-02T20:47:13;8.23;;;3.17;;
70122;SDS011;57489;37.404;24.920;2022-11-02T20:52:14;11.45;;;3.05;;
70122;SDS011;57489;37.404;24.920;2022-11-02T20:57:14;7.60;;;3.30;;
70122;SDS011;57489;37.404;24.920;2022-11-02T21:02:15;9.80;;;3.40;;
70122;SDS011;57489;37.404;24.920;2022-11-02T21:07:15;7.90;;;3.17;;
70122;SDS011;57489;37.404;24.920;2022-11-02T21:12:16;10.40;;;2.83;;
70122;SDS011;57489;37.404;24.920;2022-11-02T21:17:16;8.67;;;3.20;;
70122;SDS011;57489;37.404;24.920;2022-11-02T21:22:17;9.77;;;3.30;;
70122;SDS011;57489;37.404;24.920;2022-11-02T21:27:17;7.63;;;2.63;;
70122;SDS011;57489;37.404;24.920;2022-11-02T21:32:18;10.30;;;3.70;;
70122;SDS011;57489;37.404;24.920;2022-11-02T21:37:18;7.33;;;3.23;;
70122;SDS011;57489;37.404;24.920;2022-11-02T21:42:19;10.23;;;3.13;;
70122;SDS011;57489;37.404;24.920;2022-11-02T21:47:19;11.55;;;3.25;;
70122;SDS011;57489;37.404;24.920;2022-11-02T21:52:20;6.27;;;3.40;;
70122;SDS011;57489;37.404;24.920;2022-11-02T21:57:20;8.17;;;2.87;;
70122;SDS011;57489;37.404;24.920;2022-11-02T22:02:21;6.20;;;2.93;;
70122;SDS011;57489;37.404;24.920;2022-11-02T22:07:21;7.33;;;2.73;;
70122;SDS011;57489;37.404;24.920;2022-11-02T22:12:22;7.90;;;3.13;;
70122;SDS011;57489;37.404;24.920;2022-11-02T22:17:22;6.20;;;2.83;;
70122;SDS011;57489;37.404;24.920;2022-11-02T22:22:23;7.25;;;2.85;;
70122;SDS011;57489;37.404;24.920;2022-11-02T22:27:23;6.50;;;2.60;;
70122;SDS011;57489;37.404;24.920;2022-11-02T22:32:24;7.73;;;2.67;;
70122;SDS011;57489;37.404;24.920;2022-11-02T22:37:24;5.20;;;2.70;;
70122;SDS011;57489;37.404;24.920;2022-11-02T22:42:25;8.27;;;2.83;;
70122;SDS011;57489;37.404;24.920;2022-11-02T22:47:25;7.00;;;2.97;;
70122;SDS011;57489;37.404;24.920;2022-11-02T22:52:26;7.53;;;3.03;;
70122;SDS011;57489;37.404;24.920;2022-11-02T22:57:26;7.17;;;2.90;;
70122;SDS011;57489;37.404;24.920;2022-11-02T23:02:27;6.97;;;2.70;;
70122;SDS011;57489;37.404;24.920;2022-11-02T23:07:27;6.50;;;2.53;;
70122;SDS011;57489;37.404;24.920;2022-11-02T23:12:27;6.63;;;2.40;;
70122;SDS011;57489;37.404;24.920;2022-11-02T23:17:28;6.90;;;2.63;;
70122;SDS011;57489;37.404;24.920;2022-11-02T23:22:28;8.27;;;3.53;;
70122;SDS011;57489;37.404;24.920;2022-11-02T23:27:30;9.70;;;3.10;;
70122;SDS011;57489;37.404;24.920;2022-11-02T23:32:32;8.27;;;2.60;;
70122;SDS011;57489;37.404;24.920;2022-11-02T23:37:32;6.30;;;2.67;;
70122;SDS011;57489;37.404;24.920;2022-11-02T23:42:33;7.87;;;3.10;;
70122;SDS011;57489;37.404;24.920;2022-11-02T23:47:33;6.72;;;3.25;;
70122;SDS011;57489;37.404;24.920;2022-11-02T23:52:34;8.47;;;2.67;;
70122;SDS011;57489;37.404;24.920;2022-11-02T23:57:34;6.43;;;2.40;;
